createdAt,value
2023-03-25T00:01:17.659Z,10.53
2023-03-25T00:03:50.678Z,10.52
2023-03-25T00:06:19.781Z,10.51
2023-03-25T00:08:46.527Z,10.51
2023-03-25T00:11:13.346Z,10.50
2023-03-25T00:13:41.159Z,10.51
2023-03-25T00:16:10.360Z,10.50
2023-03-25T00:18:37.835Z,10.49
2023-03-25T00:21:10.730Z,10.50
2023-03-25T00:23:40.278Z,10.49
2023-03-25T00:26:07.436Z,10.48
2023-03-25T00:28:36.753Z,10.48
2023-03-25T00:31:06.079Z,10.47
2023-03-25T00:33:33.198Z,10.47
2023-03-25T00:36:00.111Z,10.48
2023-03-25T00:38:35.126Z,10.47
2023-03-25T00:41:17.582Z,10.46
2023-03-25T00:43:46.117Z,10.48
2023-03-25T00:46:12.901Z,10.48
2023-03-25T00:48:39.760Z,10.47
2023-03-25T00:51:10.407Z,10.47
2023-03-25T00:53:37.710Z,10.47
2023-03-25T00:56:05.001Z,10.47
2023-03-25T00:58:33.528Z,10.49
2023-03-25T01:01:00.842Z,10.48
2023-03-25T01:03:29.219Z,10.46
2023-03-25T01:05:57.966Z,10.45
2023-03-25T01:08:25.563Z,10.46
2023-03-25T01:10:54.407Z,10.45
2023-03-25T01:13:23.137Z,10.47
2023-03-25T01:15:51.786Z,10.45
2023-03-25T01:18:18.635Z,10.45
2023-03-25T01:20:45.640Z,10.45
2023-03-25T01:23:12.488Z,10.47
2023-03-25T01:25:40.545Z,10.48
2023-03-25T01:28:07.445Z,10.47
2023-03-25T01:30:34.144Z,10.44
2023-03-25T01:33:02.274Z,10.46
2023-03-25T01:35:29.093Z,10.46
2023-03-25T01:37:55.863Z,10.46
2023-03-25T01:40:26.333Z,10.45
2023-03-25T01:42:53.133Z,10.45
2023-03-25T01:45:23.626Z,10.44
2023-03-25T01:47:56.104Z,10.45
2023-03-25T01:50:28.988Z,10.45
2023-03-25T01:52:58.748Z,10.45
2023-03-25T01:55:27.529Z,10.45
2023-03-25T01:57:57.858Z,10.45
2023-03-25T02:00:26.623Z,10.43
2023-03-25T02:02:58.995Z,10.41
2023-03-25T02:05:34.086Z,10.44
2023-03-25T02:08:03.783Z,10.43
2023-03-25T02:10:30.679Z,10.43
2023-03-25T02:12:58.106Z,10.43
2023-03-25T02:15:25.407Z,10.43
2023-03-25T02:18:06.896Z,10.40
2023-03-25T02:21:03.012Z,10.37
2023-03-25T02:24:06.001Z,10.35
2023-03-25T02:27:14.025Z,10.31
2023-03-25T02:30:07.083Z,10.28
2023-03-25T02:33:01.841Z,10.26
2023-03-25T02:35:39.634Z,10.22
2023-03-25T02:38:17.282Z,10.17
2023-03-25T02:40:49.655Z,10.15
2023-03-25T02:43:21.900Z,10.12
2023-03-25T02:45:52.522Z,10.09
2023-03-25T02:48:23.676Z,10.08
2023-03-25T02:50:53.210Z,10.06
2023-03-25T02:53:26.499Z,10.07
2023-03-25T02:55:59.307Z,10.05
2023-03-25T02:58:29.952Z,10.05
2023-03-25T03:00:58.939Z,10.03
2023-03-25T03:03:27.383Z,10.02
2023-03-25T03:05:57.979Z,9.99
2023-03-25T03:08:48.352Z,9.99
2023-03-25T03:11:25.173Z,9.98
2023-03-25T03:14:18.850Z,9.97
2023-03-25T03:16:58.319Z,9.95
2023-03-25T03:19:38.247Z,9.92
2023-03-25T03:22:18.972Z,9.91
2023-03-25T03:24:49.313Z,9.86
2023-03-25T03:27:25.240Z,9.82
2023-03-25T03:29:55.613Z,9.81
2023-03-25T03:32:29.864Z,9.81
2023-03-25T03:35:01.313Z,9.78
2023-03-25T03:37:34.719Z,9.77
2023-03-25T03:40:07.387Z,9.78
2023-03-25T03:42:37.809Z,9.76
2023-03-25T03:45:10.907Z,9.73
2023-03-25T03:47:41.905Z,9.71
2023-03-25T03:50:11.819Z,9.70
2023-03-25T03:52:45.238Z,9.70
2023-03-25T03:55:20.033Z,9.71
2023-03-25T03:57:52.580Z,9.71
2023-03-25T04:00:26.611Z,9.70
2023-03-25T04:02:58.854Z,9.69
2023-03-25T04:05:31.032Z,9.70
2023-03-25T04:08:02.621Z,9.70
2023-03-25T04:10:39.441Z,9.72
2023-03-25T04:13:14.013Z,9.70
2023-03-25T04:15:41.564Z,9.70
2023-03-25T04:18:08.884Z,9.71
2023-03-25T04:20:36.772Z,9.70
2023-03-25T04:23:09.815Z,9.69
2023-03-25T04:25:38.027Z,9.70
2023-03-25T04:28:07.291Z,9.68
2023-03-25T04:30:33.988Z,9.65
2023-03-25T04:33:00.971Z,9.64
2023-03-25T04:35:28.042Z,9.65
2023-03-25T04:37:57.569Z,9.65
2023-03-25T04:40:25.948Z,9.65
2023-03-25T04:42:56.761Z,9.64
2023-03-25T04:45:25.408Z,9.64
2023-03-25T04:47:54.235Z,9.63
2023-03-25T04:50:23.547Z,9.63
2023-03-25T04:52:54.124Z,9.64
2023-03-25T04:55:21.582Z,9.63
2023-03-25T04:57:50.006Z,9.63
2023-03-25T05:00:20.784Z,9.64
2023-03-25T05:02:49.378Z,9.61
2023-03-25T05:05:20.360Z,9.63
2023-03-25T05:07:49.795Z,9.64
2023-03-25T05:10:17.546Z,9.64
2023-03-25T05:12:44.507Z,9.66
2023-03-25T05:15:15.725Z,9.65
2023-03-25T05:17:44.188Z,9.66
2023-03-25T05:20:14.575Z,9.69
2023-03-25T05:22:42.103Z,9.69
2023-03-25T05:25:10.762Z,9.70
2023-03-25T05:27:38.966Z,9.68
2023-03-25T05:30:07.548Z,9.69
2023-03-25T05:32:34.573Z,9.70
2023-03-25T05:35:03.520Z,9.69
2023-03-25T05:37:30.842Z,9.70
2023-03-25T05:39:58.007Z,9.71
2023-03-25T05:42:25.764Z,9.72
2023-03-25T05:44:54.104Z,9.73
2023-03-25T05:47:24.067Z,9.73
2023-03-25T05:49:53.313Z,9.72
2023-03-25T05:52:24.767Z,9.73
2023-03-25T05:54:58.303Z,9.71
2023-03-25T05:57:25.043Z,9.72
2023-03-25T05:59:51.847Z,9.73
2023-03-25T06:02:18.922Z,9.71
2023-03-25T06:04:50.460Z,9.71
2023-03-25T06:07:23.327Z,9.72
2023-03-25T06:09:54.392Z,9.72
2023-03-25T06:12:24.078Z,9.70
2023-03-25T06:14:55.604Z,9.71
2023-03-25T06:17:22.940Z,9.72
2023-03-25T06:19:52.363Z,9.72
2023-03-25T06:22:22.099Z,9.70
2023-03-25T06:24:50.416Z,9.70
2023-03-25T06:27:18.950Z,9.69
2023-03-25T06:29:47.317Z,9.71
2023-03-25T06:32:15.489Z,9.69
2023-03-25T06:34:42.656Z,9.70
2023-03-25T06:37:10.153Z,9.70
2023-03-25T06:39:40.055Z,9.71
2023-03-25T06:42:08.172Z,9.73
2023-03-25T06:44:34.953Z,9.75
2023-03-25T06:47:02.517Z,9.79
2023-03-25T06:49:30.641Z,9.80
2023-03-25T06:51:57.877Z,9.79
2023-03-25T06:54:25.435Z,9.79
2023-03-25T06:56:52.735Z,9.81
2023-03-25T06:59:21.331Z,9.81
2023-03-25T07:01:48.130Z,9.81
2023-03-25T07:04:19.701Z,9.83
2023-03-25T07:06:46.532Z,9.82
2023-03-25T07:09:13.684Z,9.83
2023-03-25T07:11:41.052Z,9.86
2023-03-25T07:14:07.838Z,9.86
2023-03-25T07:16:36.169Z,9.90
2023-03-25T07:19:03.049Z,9.92
2023-03-25T07:21:29.800Z,9.94
2023-03-25T07:23:56.592Z,9.95
2023-03-25T07:26:23.610Z,9.95
2023-03-25T07:28:50.400Z,9.97
2023-03-25T07:31:17.854Z,9.98
2023-03-25T07:33:46.371Z,9.99
2023-03-25T07:36:13.654Z,9.97
2023-03-25T07:38:40.769Z,9.98
2023-03-25T07:41:09.690Z,9.98
2023-03-25T07:43:40.328Z,9.98
2023-03-25T07:46:07.400Z,10.01
2023-03-25T07:48:37.002Z,10.01
2023-03-25T07:51:05.825Z,10.02
2023-03-25T07:53:32.730Z,10.01
2023-03-25T07:55:59.495Z,10.02
2023-03-25T07:58:27.942Z,10.03
2023-03-25T08:00:57.207Z,10.04
2023-03-25T08:03:24.049Z,10.05
2023-03-25T08:05:51.110Z,10.05
2023-03-25T08:08:19.343Z,10.06
2023-03-25T08:10:47.748Z,10.04
2023-03-25T08:13:15.092Z,10.03
2023-03-25T08:15:41.818Z,10.02
2023-03-25T08:18:08.634Z,9.99
2023-03-25T08:20:36.042Z,9.97
2023-03-25T08:23:03.309Z,9.99
2023-03-25T08:25:31.805Z,10.02
2023-03-25T08:27:58.699Z,10.06
2023-03-25T08:30:25.527Z,10.12
2023-03-25T08:32:55.129Z,10.17
2023-03-25T08:35:22.637Z,10.22
2023-03-25T08:37:49.845Z,10.26
2023-03-25T08:40:20.107Z,10.31
2023-03-25T08:42:48.596Z,10.34
2023-03-25T08:45:15.604Z,10.37
2023-03-25T08:47:43.995Z,10.40
2023-03-25T08:50:11.495Z,10.43
2023-03-25T08:52:38.409Z,10.42
2023-03-25T08:55:09.695Z,10.43
2023-03-25T08:57:38.180Z,10.41
2023-03-25T09:00:13.209Z,10.44
2023-03-25T09:02:42.562Z,10.45
2023-03-25T09:05:16.562Z,10.46
2023-03-25T09:07:43.511Z,10.46
2023-03-25T09:10:10.719Z,10.48
2023-03-25T09:12:37.708Z,10.50
2023-03-25T09:15:07.587Z,10.52
2023-03-25T09:17:36.832Z,10.56
2023-03-25T09:20:04.049Z,10.59
2023-03-25T09:22:30.893Z,10.62
2023-03-25T09:24:57.681Z,10.65
2023-03-25T09:27:24.684Z,10.68
2023-03-25T09:29:51.649Z,10.70
2023-03-25T09:32:20.729Z,10.72
2023-03-25T09:34:48.555Z,10.73
2023-03-25T09:37:15.624Z,10.78
2023-03-25T09:39:43.159Z,10.82
2023-03-25T09:42:37.830Z,10.84
2023-03-25T09:45:17.688Z,10.87
2023-03-25T09:47:56.628Z,10.92
2023-03-25T09:50:25.381Z,10.99
2023-03-25T09:52:58.846Z,11.02
2023-03-25T09:55:28.647Z,11.06
2023-03-25T09:58:00.988Z,11.09
2023-03-25T10:00:27.996Z,11.12
2023-03-25T10:03:08.048Z,11.12
2023-03-25T10:05:54.278Z,11.16
2023-03-25T10:08:31.242Z,11.20
2023-03-25T10:11:06.774Z,11.25
2023-03-25T10:13:44.364Z,11.30
2023-03-25T10:16:26.230Z,11.37
2023-03-25T10:19:06.412Z,11.44
2023-03-25T10:21:39.803Z,11.46
2023-03-25T10:24:17.096Z,11.45
2023-03-25T10:26:47.554Z,11.47
2023-03-25T10:29:18.088Z,11.46
2023-03-25T10:31:53.177Z,11.43
2023-03-25T10:34:29.872Z,11.41
2023-03-25T10:37:00.620Z,11.37
2023-03-25T10:39:37.501Z,11.35
2023-03-25T10:42:18.162Z,11.35
2023-03-25T10:44:46.143Z,11.35
2023-03-25T10:47:18.712Z,11.36
2023-03-25T10:49:48.439Z,11.32
2023-03-25T10:52:16.744Z,11.26
2023-03-25T10:54:50.407Z,11.22
2023-03-25T10:57:20.617Z,11.13
2023-03-25T10:59:59.232Z,11.02
2023-03-25T11:02:30.176Z,10.96
2023-03-25T11:05:01.655Z,10.95
2023-03-25T11:07:32.570Z,10.94
2023-03-25T11:10:13.693Z,10.94
2023-03-25T11:12:45.353Z,10.97
2023-03-25T11:15:15.848Z,10.97
2023-03-25T11:17:44.086Z,10.96
2023-03-25T11:20:20.612Z,10.95
2023-03-25T11:22:50.984Z,10.94
2023-03-25T11:25:23.658Z,10.96
2023-03-25T11:27:53.854Z,10.98
2023-03-25T11:30:22.550Z,10.99
2023-03-25T11:32:59.203Z,11.03
2023-03-25T11:35:29.539Z,11.11
2023-03-25T11:37:58.795Z,11.18
2023-03-25T11:40:27.371Z,11.26
2023-03-25T11:42:55.965Z,11.36
2023-03-25T11:45:26.073Z,11.46
2023-03-25T11:47:58.083Z,11.50
2023-03-25T11:50:28.935Z,11.51
2023-03-25T11:53:04.599Z,11.51
2023-03-25T11:55:36.662Z,11.53
2023-03-25T11:58:04.504Z,11.51
2023-03-25T12:00:38.014Z,11.54
2023-03-25T12:03:06.954Z,11.55
2023-03-25T12:05:35.141Z,11.61
2023-03-25T12:08:11.658Z,11.63
2023-03-25T12:10:50.467Z,11.65
2023-03-25T12:13:26.348Z,11.67
2023-03-25T12:16:06.877Z,11.71
2023-03-25T12:18:54.728Z,11.73
2023-03-25T12:21:38.674Z,11.79
2023-03-25T12:24:21.619Z,11.81
2023-03-25T12:26:57.526Z,11.81
2023-03-25T12:29:33.145Z,11.85
2023-03-25T12:32:11.973Z,11.86
2023-03-25T12:34:51.782Z,11.87
2023-03-25T12:37:30.662Z,11.90
2023-03-25T12:40:18.024Z,11.94
2023-03-25T12:42:53.371Z,11.97
2023-03-25T12:45:32.105Z,12.01
2023-03-25T12:48:13.788Z,12.10
2023-03-25T12:50:53.606Z,12.23
2023-03-25T12:53:40.288Z,12.31
2023-03-25T12:56:30.521Z,12.33
2023-03-25T12:59:37.142Z,12.23
2023-03-25T13:02:19.377Z,12.03
2023-03-25T13:05:18.811Z,11.84
2023-03-25T13:07:49.689Z,11.68
2023-03-25T13:10:20.607Z,11.58
2023-03-25T13:12:52.334Z,11.50
2023-03-25T13:15:26.803Z,11.41
2023-03-25T13:18:07.290Z,11.33
2023-03-25T13:20:39.601Z,11.28
2023-03-25T13:23:12.405Z,11.29
2023-03-25T13:25:49.998Z,11.35
2023-03-25T13:28:22.994Z,11.45
2023-03-25T13:30:50.710Z,11.55
2023-03-25T13:33:25.167Z,11.65
2023-03-25T13:35:56.158Z,11.75
2023-03-25T13:38:30.564Z,11.84
2023-03-25T13:41:09.730Z,11.92
2023-03-25T13:43:41.666Z,11.99
2023-03-25T13:46:14.395Z,12.04
2023-03-25T13:48:47.120Z,12.10
2023-03-25T13:51:14.152Z,12.15
2023-03-25T13:53:46.837Z,12.19
2023-03-25T13:57:10.974Z,12.19
2023-03-25T14:00:06.501Z,12.21
2023-03-25T14:03:26.328Z,12.24
2023-03-25T14:06:44.123Z,12.27
2023-03-25T14:09:50.458Z,12.26
2023-03-25T14:12:24.064Z,12.27
2023-03-25T14:14:58.174Z,12.27
2023-03-25T14:17:28.179Z,12.25
2023-03-25T14:20:11.170Z,12.18
2023-03-25T14:22:55.872Z,12.10
2023-03-25T14:25:38.662Z,12.03
2023-03-25T14:28:10.547Z,12.00
2023-03-25T14:30:43.301Z,11.97
2023-03-25T14:33:11.740Z,11.93
2023-03-25T14:35:51.483Z,11.92
2023-03-25T14:38:21.858Z,11.90
2023-03-25T14:41:03.714Z,11.85
2023-03-25T14:43:34.461Z,11.79
2023-03-25T14:46:14.731Z,11.70
2023-03-25T14:48:56.567Z,11.63
2023-03-25T14:51:45.535Z,11.60
2023-03-25T14:54:27.248Z,11.60
2023-03-25T14:57:03.357Z,11.60
2023-03-25T14:59:47.863Z,11.63
2023-03-25T15:02:26.115Z,11.67
2023-03-25T15:04:55.422Z,11.74
2023-03-25T15:07:55.707Z,11.80
2023-03-25T15:10:34.459Z,11.87
2023-03-25T15:13:06.094Z,11.92
2023-03-25T15:15:52.763Z,11.98
2023-03-25T15:18:50.928Z,12.03
2023-03-25T15:21:23.219Z,12.10
2023-03-25T15:23:52.889Z,12.15
2023-03-25T15:26:28.059Z,12.16
2023-03-25T15:29:28.567Z,12.18
2023-03-25T15:32:06.443Z,12.20
2023-03-25T15:35:03.681Z,12.24
2023-03-25T15:38:01.940Z,12.30
2023-03-25T15:40:37.338Z,12.34
2023-03-25T15:43:42.571Z,12.36
2023-03-25T15:46:58.103Z,12.35
2023-03-25T15:49:46.884Z,12.32
2023-03-25T15:52:24.626Z,12.30
2023-03-25T15:54:57.131Z,12.29
2023-03-25T15:57:29.382Z,12.26
2023-03-25T16:00:02.403Z,12.26
2023-03-25T16:02:33.949Z,12.25
2023-03-25T16:05:02.533Z,12.27
2023-03-25T16:07:31.371Z,12.28
2023-03-25T16:10:14.795Z,12.30
2023-03-25T16:12:44.062Z,12.29
2023-03-25T16:15:14.812Z,12.26
2023-03-25T16:17:43.283Z,12.22
2023-03-25T16:20:15.565Z,12.19
2023-03-25T16:22:44.418Z,12.18
2023-03-25T16:25:22.835Z,12.12
2023-03-25T16:27:54.939Z,12.00
2023-03-25T16:30:26.215Z,11.92
2023-03-25T16:33:05.319Z,11.84
2023-03-25T16:35:32.714Z,11.80
2023-03-25T16:38:01.419Z,11.73
2023-03-25T16:40:32.450Z,11.72
2023-03-25T16:43:07.059Z,11.73
2023-03-25T16:45:39.608Z,11.76
2023-03-25T16:48:21.590Z,11.78
2023-03-25T16:50:50.210Z,11.79
2023-03-25T16:53:18.250Z,11.80
2023-03-25T16:56:09.134Z,11.81
2023-03-25T16:58:38.223Z,11.78
2023-03-25T17:01:11.617Z,11.77
2023-03-25T17:03:48.579Z,11.76
2023-03-25T17:06:22.704Z,11.77
2023-03-25T17:08:51.084Z,11.76
2023-03-25T17:11:25.780Z,11.76
2023-03-25T17:13:58.450Z,11.76
2023-03-25T17:16:39.707Z,11.78
2023-03-25T17:19:08.412Z,11.78
2023-03-25T17:21:55.956Z,11.68
2023-03-25T17:24:24.387Z,11.56
2023-03-25T17:27:06.878Z,11.50
2023-03-25T17:29:34.000Z,11.46
2023-03-25T17:32:00.821Z,11.45
2023-03-25T17:34:27.749Z,11.45
2023-03-25T17:36:58.446Z,11.42
2023-03-25T17:39:28.535Z,11.29
2023-03-25T17:42:01.521Z,11.20
2023-03-25T17:44:33.451Z,11.14
2023-03-25T17:47:00.444Z,11.07
2023-03-25T17:49:27.206Z,11.00
2023-03-25T17:51:53.996Z,10.95
2023-03-25T17:54:20.740Z,10.94
2023-03-25T17:56:47.961Z,10.89
2023-03-25T17:59:19.113Z,10.88
2023-03-25T18:01:47.474Z,10.83
2023-03-25T18:04:15.451Z,10.79
2023-03-25T18:06:43.364Z,10.75
2023-03-25T18:09:15.863Z,10.75
2023-03-25T18:11:42.909Z,10.74
2023-03-25T18:14:09.610Z,10.73
2023-03-25T18:16:37.988Z,10.73
2023-03-25T18:19:09.286Z,10.71
2023-03-25T18:21:36.086Z,10.67
2023-03-25T18:24:02.887Z,10.62
2023-03-25T18:26:29.726Z,10.59
2023-03-25T18:28:56.557Z,10.58
2023-03-25T18:31:23.620Z,10.56
2023-03-25T18:33:51.816Z,10.54
2023-03-25T18:36:19.320Z,10.52
2023-03-25T18:38:46.109Z,10.51
2023-03-25T18:41:14.509Z,10.52
2023-03-25T18:43:41.368Z,10.51
2023-03-25T18:46:12.340Z,10.51
2023-03-25T18:48:39.072Z,10.51
2023-03-25T18:51:10.344Z,10.51
2023-03-25T18:53:37.286Z,10.51
2023-03-25T18:56:04.913Z,10.51
2023-03-25T18:58:33.022Z,10.48
2023-03-25T19:01:00.771Z,10.44
2023-03-25T19:03:31.642Z,10.39
2023-03-25T19:05:59.958Z,10.37
2023-03-25T19:08:30.173Z,10.33
2023-03-25T19:11:11.818Z,10.33
2023-03-25T19:13:46.334Z,10.31
2023-03-25T19:16:13.102Z,10.30
2023-03-25T19:18:40.078Z,10.29
2023-03-25T19:21:07.236Z,10.27
2023-03-25T19:23:36.594Z,10.26
2023-03-25T19:26:03.757Z,10.24
2023-03-25T19:28:30.851Z,10.24
2023-03-25T19:31:01.205Z,10.23
2023-03-25T19:33:31.741Z,10.22
2023-03-25T19:36:02.071Z,10.20
2023-03-25T19:38:29.773Z,10.17
2023-03-25T19:41:08.213Z,10.15
2023-03-25T19:43:35.472Z,10.14
2023-03-25T19:46:04.921Z,10.09
2023-03-25T19:48:31.980Z,10.07
2023-03-25T19:51:00.470Z,10.05
2023-03-25T19:53:28.867Z,10.03
2023-03-25T19:55:56.769Z,10.00
2023-03-25T19:58:25.155Z,9.98
2023-03-25T20:00:53.551Z,9.94
2023-03-25T20:03:24.473Z,9.94
2023-03-25T20:05:56.681Z,9.92
2023-03-25T20:08:26.301Z,9.91
2023-03-25T20:10:53.554Z,9.90
2023-03-25T20:13:21.213Z,9.88
2023-03-25T20:15:50.515Z,9.88
2023-03-25T20:18:18.112Z,9.89
2023-03-25T20:20:44.986Z,9.89
2023-03-25T20:23:13.126Z,9.90
2023-03-25T20:25:39.997Z,9.88
2023-03-25T20:28:07.035Z,9.88
2023-03-25T20:30:35.742Z,9.87
2023-03-25T20:33:04.425Z,9.86
2023-03-25T20:35:40.197Z,9.85
2023-03-25T20:38:07.177Z,9.83
2023-03-25T20:40:43.548Z,9.80
2023-03-25T20:43:14.866Z,9.79
2023-03-25T20:45:42.614Z,9.76
2023-03-25T20:48:12.509Z,9.73
2023-03-25T20:50:39.789Z,9.70
2023-03-25T20:53:09.320Z,9.68
2023-03-25T20:55:36.777Z,9.65
2023-03-25T20:58:04.790Z,9.64
2023-03-25T21:00:36.703Z,9.62
2023-03-25T21:03:06.090Z,9.62
2023-03-25T21:05:34.393Z,9.61
2023-03-25T21:08:01.101Z,9.61
2023-03-25T21:10:28.152Z,9.62
2023-03-25T21:12:54.856Z,9.62
2023-03-25T21:15:22.813Z,9.62
2023-03-25T21:17:57.126Z,9.60
2023-03-25T21:20:27.970Z,9.60
2023-03-25T21:22:58.025Z,9.58
2023-03-25T21:25:34.485Z,9.57
2023-03-25T21:28:04.981Z,9.55
2023-03-25T21:30:32.336Z,9.54
2023-03-25T21:33:08.221Z,9.53
2023-03-25T21:35:35.662Z,9.52
2023-03-25T21:38:08.918Z,9.53
2023-03-25T21:40:39.816Z,9.51
2023-03-25T21:43:07.071Z,9.50
2023-03-25T21:45:35.592Z,9.49
2023-03-25T21:48:02.915Z,9.49
2023-03-25T21:50:36.419Z,9.51
2023-03-25T21:53:08.132Z,9.51
2023-03-25T21:55:38.607Z,9.51
2023-03-25T21:58:07.734Z,9.52
2023-03-25T22:00:34.554Z,9.53
2023-03-25T22:03:04.305Z,9.53
2023-03-25T22:05:35.263Z,9.53
2023-03-25T22:08:07.247Z,9.54
2023-03-25T22:10:34.548Z,9.55
2023-03-25T22:13:04.105Z,9.54
2023-03-25T22:15:33.966Z,9.56
2023-03-25T22:18:01.287Z,9.57
2023-03-25T22:20:29.271Z,9.57
2023-03-25T22:22:56.137Z,9.58
2023-03-25T22:25:24.295Z,9.57
2023-03-25T22:27:51.317Z,9.58
2023-03-25T22:30:19.415Z,9.58
2023-03-25T22:32:46.271Z,9.58
2023-03-25T22:35:14.178Z,9.57
2023-03-25T22:37:42.780Z,9.57
2023-03-25T22:40:11.005Z,9.56
2023-03-25T22:42:39.117Z,9.54
2023-03-25T22:45:07.490Z,9.55
2023-03-25T22:47:34.623Z,9.53
2023-03-25T22:50:03.205Z,9.52
2023-03-25T22:52:30.297Z,9.51
2023-03-25T22:55:07.794Z,9.50
2023-03-25T22:57:53.167Z,9.50
2023-03-25T23:00:21.394Z,9.49
2023-03-25T23:02:54.093Z,9.49
2023-03-25T23:05:21.333Z,9.49
2023-03-25T23:07:48.273Z,9.50
2023-03-25T23:10:16.353Z,9.50
2023-03-25T23:13:24.022Z,9.51
2023-03-25T23:16:04.171Z,9.51
2023-03-25T23:19:09.117Z,9.50
2023-03-25T23:21:50.966Z,9.49
2023-03-25T23:24:18.070Z,9.46
2023-03-25T23:26:45.887Z,9.48
2023-03-25T23:29:14.364Z,9.48
2023-03-25T23:31:56.498Z,9.50
2023-03-25T23:34:26.122Z,9.50
2023-03-25T23:36:56.188Z,9.49
2023-03-25T23:39:25.236Z,9.48
2023-03-25T23:41:58.459Z,9.48
2023-03-25T23:44:25.821Z,9.47
2023-03-25T23:47:08.122Z,9.46
2023-03-25T23:49:38.665Z,9.45
2023-03-25T23:52:12.113Z,9.45
2023-03-25T23:54:39.673Z,9.46
2023-03-25T23:57:11.748Z,9.44
2023-03-25T23:59:38.784Z,9.44
